createdAt,value
2023-01-07T00:01:45.029Z,101668.56
2023-01-07T00:04:14.692Z,101662.06
2023-01-07T00:06:47.382Z,101671.28
2023-01-07T00:09:17.496Z,101653.91
2023-01-07T00:11:46.587Z,101671.41
2023-01-07T00:14:16.146Z,101660.25
2023-01-07T00:16:44.952Z,101661.72
2023-01-07T00:19:16.354Z,101661.38
2023-01-07T00:21:45.982Z,101663.75
2023-01-07T00:24:14.779Z,101663.41
2023-01-07T00:26:43.516Z,101661.16
2023-01-07T00:29:11.707Z,101655.72
2023-01-07T00:31:41.585Z,101655.72
2023-01-07T00:34:10.407Z,101655.72
2023-01-07T00:36:45.745Z,101646.03
2023-01-07T00:39:17.895Z,101637.91
2023-01-07T00:42:00.900Z,101637.91
2023-01-07T00:44:29.333Z,101634.41
2023-01-07T00:46:58.238Z,101631.69
2023-01-07T00:49:26.813Z,101627.06
2023-01-07T00:51:56.468Z,101627.06
2023-01-07T00:54:24.954Z,101629.75
2023-01-07T00:56:53.096Z,101617.34
2023-01-07T00:59:21.801Z,101627.06
2023-01-07T01:01:50.104Z,101628.63
2023-01-07T01:04:18.551Z,101618.59
2023-01-07T01:06:46.868Z,101615.53
2023-01-07T01:09:16.485Z,101622.53
2023-01-07T01:11:44.856Z,101612.50
2023-01-07T01:14:13.412Z,101607.91
2023-01-07T01:16:41.806Z,101613.31
2023-01-07T01:19:10.010Z,101614.88
2023-01-07T01:21:38.212Z,101610.69
2023-01-07T01:24:06.936Z,101611.81
2023-01-07T01:26:36.590Z,101607.63
2023-01-07T01:29:05.010Z,101605.41
2023-01-07T01:31:33.353Z,101605.03
2023-01-07T01:34:01.693Z,101599.63
2023-01-07T01:36:29.986Z,101600.06
2023-01-07T01:38:58.656Z,101604.34
2023-01-07T01:41:27.049Z,101599.06
2023-01-07T01:43:56.970Z,101599.84
2023-01-07T01:46:36.216Z,101584.38
2023-01-07T01:49:11.541Z,101594.06
2023-01-07T01:51:43.320Z,101600.28
2023-01-07T01:54:15.678Z,101601.41
2023-01-07T01:56:50.082Z,101589.78
2023-01-07T01:59:24.987Z,101601.41
2023-01-07T02:01:53.613Z,101589.78
2023-01-07T02:04:24.553Z,101580.53
2023-01-07T02:07:00.556Z,101580.53
2023-01-07T02:09:29.207Z,101582.88
2023-01-07T02:12:07.256Z,101582.88
2023-01-07T02:14:58.349Z,101586.88
2023-01-07T02:17:35.913Z,101585.28
2023-01-07T02:20:39.553Z,101586.06
2023-01-07T02:24:03.298Z,101583.03
2023-01-07T02:27:04.628Z,101577.47
2023-01-07T02:30:09.050Z,101578.28
2023-01-07T02:32:58.204Z,101568.53
2023-01-07T02:35:46.511Z,101569.69
2023-01-07T02:38:28.639Z,101571.25
2023-01-07T02:41:10.123Z,101573.19
2023-01-07T02:43:48.163Z,101569.69
2023-01-07T02:46:26.102Z,101575.56
2023-01-07T02:48:55.821Z,101566.63
2023-01-07T02:51:34.620Z,101558.19
2023-01-07T02:54:03.949Z,101560.09
2023-01-07T02:56:49.050Z,101558.19
2023-01-07T02:59:41.184Z,101558.97
2023-01-07T03:02:30.933Z,101555.47
2023-01-07T03:05:26.522Z,101551.50
2023-01-07T03:08:15.300Z,101551.03
2023-01-07T03:10:51.850Z,101546.00
2023-01-07T03:13:26.080Z,101547.91
2023-01-07T03:16:01.420Z,101547.13
2023-01-07T03:18:32.495Z,101540.09
2023-01-07T03:21:04.437Z,101538.53
2023-01-07T03:23:35.425Z,101541.22
2023-01-07T03:26:06.956Z,101531.44
2023-01-07T03:28:40.608Z,101537.19
2023-01-07T03:31:14.426Z,101532.09
2023-01-07T03:33:50.447Z,101534.34
2023-01-07T03:36:24.891Z,101526.59
2023-01-07T03:38:54.361Z,101528.16
2023-01-07T03:41:40.141Z,101531.19
2023-01-07T03:44:08.341Z,101527.25
2023-01-07T03:46:38.640Z,101527.25
2023-01-07T03:49:06.806Z,101521.84
2023-01-07T03:51:36.320Z,101525.00
2023-01-07T03:54:04.681Z,101526.59
2023-01-07T03:56:32.948Z,101517.31
2023-01-07T03:59:01.177Z,101515.03
2023-01-07T04:01:30.678Z,101519.34
2023-01-07T04:04:00.694Z,101511.22
2023-01-07T04:06:29.999Z,101510.06
2023-01-07T04:08:59.643Z,101501.16
2023-01-07T04:11:30.024Z,101503.53
2023-01-07T04:14:00.718Z,101498.09
2023-01-07T04:16:29.356Z,101505.13
2023-01-07T04:18:57.836Z,101501.25
2023-01-07T04:21:26.215Z,101493.91
2023-01-07T04:23:54.424Z,101497.41
2023-01-07T04:26:24.350Z,101499.00
2023-01-07T04:28:52.743Z,101488.94
2023-01-07T04:31:20.948Z,101481.16
2023-01-07T04:33:49.147Z,101490.41
2023-01-07T04:36:17.357Z,101481.84
2023-01-07T04:38:45.755Z,101475.97
2023-01-07T04:41:14.014Z,101473.16
2023-01-07T04:43:43.561Z,101466.50
2023-01-07T04:46:11.823Z,101453.66
2023-01-07T04:48:40.092Z,101463.69
2023-01-07T04:51:08.314Z,101455.91
2023-01-07T04:53:36.577Z,101449.59
2023-01-07T04:56:06.342Z,101454.22
2023-01-07T04:58:35.043Z,101447.53
2023-01-07T05:01:05.157Z,101443.28
2023-01-07T05:03:34.493Z,101437.06
2023-01-07T05:06:03.412Z,101434.72
2023-01-07T05:08:31.683Z,101416.63
2023-01-07T05:10:59.970Z,101419.00
2023-01-07T05:13:28.654Z,101417.09
2023-01-07T05:15:56.830Z,101414.38
2023-01-07T05:18:26.485Z,101406.69
2023-01-07T05:20:54.641Z,101409.41
2023-01-07T05:23:22.898Z,101407.13
2023-01-07T05:25:51.238Z,101407.13
2023-01-07T05:28:19.403Z,101405.66
2023-01-07T05:30:48.842Z,101393.69
2023-01-07T05:33:17.071Z,101403.75
2023-01-07T05:35:49.699Z,101402.28
2023-01-07T05:38:17.947Z,101402.28
2023-01-07T05:40:49.878Z,101396.53
2023-01-07T05:43:18.484Z,101394.59
2023-01-07T05:45:47.464Z,101407.78
2023-01-07T05:48:16.609Z,101399.66
2023-01-07T05:50:46.204Z,101397.38
2023-01-07T05:53:14.675Z,101398.19
2023-01-07T05:55:42.884Z,101390.41
2023-01-07T05:58:11.621Z,101393.09
2023-01-07T06:00:39.890Z,101390.41
2023-01-07T06:03:08.346Z,101387.69
2023-01-07T06:05:36.532Z,101401.25
2023-01-07T06:08:06.970Z,101378.31
2023-01-07T06:10:35.553Z,101381.81
2023-01-07T06:13:03.825Z,101376.41
2023-01-07T06:15:32.255Z,101378.31
2023-01-07T06:18:00.577Z,101374.03
2023-01-07T06:20:29.760Z,101371.00
2023-01-07T06:22:57.931Z,101372.16
2023-01-07T06:25:27.797Z,101366.72
2023-01-07T06:27:58.370Z,101374.84
2023-01-07T06:30:26.945Z,101364.03
2023-01-07T06:32:55.626Z,101360.84
2023-01-07T06:35:23.875Z,101364.34
2023-01-07T06:37:52.148Z,101366.72
2023-01-07T06:40:20.358Z,101367.84
2023-01-07T06:42:50.090Z,101360.84
2023-01-07T06:45:18.429Z,101368.19
2023-01-07T06:47:48.358Z,101356.56
2023-01-07T06:50:17.723Z,101354.97
2023-01-07T06:52:46.019Z,101348.44
2023-01-07T06:55:14.221Z,101343.00
2023-01-07T06:57:42.465Z,101329.47
2023-01-07T07:00:14.074Z,101326.75
2023-01-07T07:02:42.357Z,101324.03
2023-01-07T07:05:11.890Z,101319.75
2023-01-07T07:07:40.138Z,101321.31
2023-01-07T07:10:10.012Z,101319.75
2023-01-07T07:12:38.944Z,101322.91
2023-01-07T07:15:09.699Z,101312.75
2023-01-07T07:17:39.357Z,101315.47
2023-01-07T07:20:09.187Z,101313.44
2023-01-07T07:22:37.391Z,101306.81
2023-01-07T07:25:06.522Z,101312.56
2023-01-07T07:27:34.719Z,101313.66
2023-01-07T07:30:03.011Z,101309.38
2023-01-07T07:32:31.286Z,101299.72
2023-01-07T07:35:01.085Z,101303.97
2023-01-07T07:37:29.960Z,101301.97
2023-01-07T07:39:58.153Z,101302.31
2023-01-07T07:42:26.436Z,101294.97
2023-01-07T07:44:54.596Z,101290.66
2023-01-07T07:47:23.180Z,101295.78
2023-01-07T07:49:51.408Z,101298.94
2023-01-07T07:52:20.958Z,101295.06
2023-01-07T07:54:49.152Z,101296.63
2023-01-07T07:57:17.530Z,101299.34
2023-01-07T07:59:45.752Z,101299.34
2023-01-07T08:02:14.915Z,101307.16
2023-01-07T08:04:43.209Z,101287.41
2023-01-07T08:07:13.159Z,101293.59
2023-01-07T08:09:42.925Z,101287.06
2023-01-07T08:12:11.114Z,101278.56
2023-01-07T08:14:39.322Z,101279.38
2023-01-07T08:17:07.503Z,101278.22
2023-01-07T08:19:35.751Z,101286.34
2023-01-07T08:22:03.945Z,101277.44
2023-01-07T08:24:32.174Z,101281.38
2023-01-07T08:27:01.845Z,101279.81
2023-01-07T08:29:30.008Z,101282.97
2023-01-07T08:31:58.206Z,101272.56
2023-01-07T08:34:26.698Z,101265.56
2023-01-07T08:36:54.853Z,101267.94
2023-01-07T08:39:23.107Z,101266.00
2023-01-07T08:41:51.273Z,101266.47
2023-01-07T08:44:20.842Z,101263.75
2023-01-07T08:46:49.092Z,101257.97
2023-01-07T08:49:17.354Z,101263.03
2023-01-07T08:51:45.598Z,101256.50
2023-01-07T08:54:13.943Z,101251.06
2023-01-07T08:56:42.313Z,101251.06
2023-01-07T08:59:10.632Z,101251.84
2023-01-07T09:01:40.476Z,101250.41
2023-01-07T09:04:08.921Z,101249.63
2023-01-07T09:06:37.109Z,101249.22
2023-01-07T09:09:05.715Z,101250.81
2023-01-07T09:11:34.106Z,101247.41
2023-01-07T09:14:02.349Z,101250.59
2023-01-07T09:16:30.749Z,101244.03
2023-01-07T09:19:00.408Z,101235.91
2023-01-07T09:21:28.616Z,101228.13
2023-01-07T09:23:56.823Z,101225.72
2023-01-07T09:26:25.003Z,101224.94
2023-01-07T09:28:53.254Z,101229.25
2023-01-07T09:31:21.978Z,101222.69
2023-01-07T09:33:52.887Z,101211.72
2023-01-07T09:36:22.862Z,101222.34
2023-01-07T09:38:51.048Z,101219.25
2023-01-07T09:41:30.344Z,101218.91
2023-01-07T09:44:09.019Z,101215.88
2023-01-07T09:46:38.079Z,101212.81
2023-01-07T09:49:07.486Z,101211.28
2023-01-07T09:51:40.405Z,101211.28
2023-01-07T09:54:21.341Z,101202.94
2023-01-07T09:56:49.844Z,101218.50
2023-01-07T09:59:20.596Z,101211.59
2023-01-07T10:01:55.336Z,101209.81
2023-01-07T10:04:36.614Z,101193.81
2023-01-07T10:07:20.949Z,101191.00
2023-01-07T10:10:03.716Z,101182.63
2023-01-07T10:12:41.563Z,101183.34
2023-01-07T10:15:26.205Z,101173.47
2023-01-07T10:18:21.639Z,101171.41
2023-01-07T10:21:00.851Z,101158.09
2023-01-07T10:23:34.094Z,101162.47
2023-01-07T10:26:03.617Z,101157.19
2023-01-07T10:28:37.777Z,101153.03
2023-01-07T10:31:11.334Z,101146.88
2023-01-07T10:33:41.831Z,101139.09
2023-01-07T10:36:22.499Z,101135.22
2023-01-07T10:39:09.266Z,101126.13
2023-01-07T10:41:48.787Z,101120.78
2023-01-07T10:44:58.558Z,101098.56
2023-01-07T10:47:40.948Z,101102.13
2023-01-07T10:50:43.572Z,101090.22
2023-01-07T10:53:24.461Z,101091.03
2023-01-07T10:56:09.884Z,101084.78
2023-01-07T10:58:43.306Z,101074.75
2023-01-07T11:01:21.860Z,101065.59
2023-01-07T11:03:51.424Z,101051.69
2023-01-07T11:06:25.840Z,101058.72
2023-01-07T11:08:55.002Z,101058.72
2023-01-07T11:11:26.007Z,101049.28
2023-01-07T11:13:58.760Z,101029.72
2023-01-07T11:16:32.058Z,101022.69
2023-01-07T11:19:05.924Z,101020.09
2023-01-07T11:21:42.774Z,101019.50
2023-01-07T11:24:33.823Z,101016.13
2023-01-07T11:27:14.695Z,101019.75
2023-01-07T11:29:45.590Z,101003.75
2023-01-07T11:32:26.145Z,101006.00
2023-01-07T11:35:00.867Z,100982.72
2023-01-07T11:37:38.255Z,100991.44
2023-01-07T11:40:21.945Z,100986.19
2023-01-07T11:42:54.643Z,100978.56
2023-01-07T11:45:25.956Z,100971.22
2023-01-07T11:48:09.047Z,100961.53
2023-01-07T11:50:40.196Z,100961.13
2023-01-07T11:53:28.310Z,100963.06
2023-01-07T11:56:00.093Z,100963.06
2023-01-07T11:58:32.866Z,100955.16
2023-01-07T12:01:18.951Z,100950.81
2023-01-07T12:04:15.315Z,100932.47
2023-01-07T12:06:47.598Z,100942.19
2023-01-07T12:09:38.813Z,100934.03
2023-01-07T12:12:27.776Z,100920.84
2023-01-07T12:14:57.794Z,100924.44
2023-01-07T12:17:29.307Z,100919.03
2023-01-07T12:20:32.986Z,100916.31
2023-01-07T12:23:18.785Z,100905.44
2023-01-07T12:25:58.937Z,100907.00
2023-01-07T12:28:46.895Z,100894.47
2023-01-07T12:31:28.258Z,100894.00
2023-01-07T12:34:10.379Z,100887.34
2023-01-07T12:36:47.565Z,100887.66
2023-01-07T12:39:23.370Z,100875.59
2023-01-07T12:41:59.876Z,100876.34
2023-01-07T12:44:28.783Z,100873.16
2023-01-07T12:47:32.149Z,100863.38
2023-01-07T12:50:03.976Z,100855.16
2023-01-07T12:52:42.600Z,100847.31
2023-01-07T12:55:20.712Z,100848.47
2023-01-07T12:58:03.180Z,100846.91
2023-01-07T13:00:36.477Z,100837.16
2023-01-07T13:03:20.256Z,100825.88
2023-01-07T13:05:55.232Z,100832.50
2023-01-07T13:08:36.098Z,100833.31
2023-01-07T13:11:14.334Z,100826.41
2023-01-07T13:13:48.772Z,100828.75
2023-01-07T13:16:17.177Z,100834.56
2023-01-07T13:18:46.832Z,100833.41
2023-01-07T13:21:17.074Z,100833.41
2023-01-07T13:24:20.526Z,100810.81
2023-01-07T13:27:19.896Z,100802.28
2023-01-07T13:30:18.363Z,100803.06
2023-01-07T13:33:05.498Z,100808.09
2023-01-07T13:36:03.273Z,100798.41
2023-01-07T13:39:04.696Z,100794.50
2023-01-07T13:41:54.987Z,100786.69
2023-01-07T13:44:56.632Z,100792.13
2023-01-07T13:47:27.940Z,100786.31
2023-01-07T13:49:59.849Z,100796.78
2023-01-07T13:52:32.675Z,100775.06
2023-01-07T13:55:03.819Z,100769.63
2023-01-07T13:57:45.509Z,100764.19
2023-01-07T14:00:42.733Z,100759.44
2023-01-07T14:03:44.713Z,100761.38
2023-01-07T14:06:39.101Z,100765.56
2023-01-07T14:09:34.016Z,100755.78
2023-01-07T14:12:45.853Z,100758.50
2023-01-07T14:16:01.306Z,100741.47
2023-01-07T14:19:12.203Z,100734.41
2023-01-07T14:22:07.199Z,100731.63
2023-01-07T14:25:07.556Z,100739.75
2023-01-07T14:28:05.579Z,100730.00
2023-01-07T14:30:37.686Z,100716.41
2023-01-07T14:33:07.538Z,100722.91
2023-01-07T14:35:38.607Z,100720.94
2023-01-07T14:38:41.356Z,100710.81
2023-01-07T14:41:13.263Z,100717.75
2023-01-07T14:44:27.121Z,100706.06
2023-01-07T14:46:56.005Z,100713.44
2023-01-07T14:49:57.647Z,100703.31
2023-01-07T14:53:09.019Z,100704.41
2023-01-07T14:55:51.259Z,100698.50
2023-01-07T14:58:36.582Z,100699.53
2023-01-07T15:01:37.365Z,100703.72
2023-01-07T15:04:47.272Z,100690.84
2023-01-07T15:07:19.500Z,100685.34
2023-01-07T15:10:12.997Z,100686.84
2023-01-07T15:13:16.893Z,100667.41
2023-01-07T15:16:04.272Z,100677.38
2023-01-07T15:18:43.049Z,100664.13
2023-01-07T15:21:23.158Z,100662.16
2023-01-07T15:24:02.441Z,100651.63
2023-01-07T15:26:39.008Z,100651.56
2023-01-07T15:29:19.844Z,100656.94
2023-01-07T15:31:56.834Z,100658.81
2023-01-07T15:34:31.439Z,100647.47
2023-01-07T15:37:00.505Z,100637.38
2023-01-07T15:39:32.132Z,100641.56
2023-01-07T15:42:02.024Z,100641.50
2023-01-07T15:44:40.527Z,100636.47
2023-01-07T15:47:39.090Z,100639.53
2023-01-07T15:50:27.140Z,100636.75
2023-01-07T15:52:58.033Z,100632.84
2023-01-07T15:55:29.617Z,100632.06
2023-01-07T15:58:04.745Z,100630.50
2023-01-07T16:00:34.866Z,100620.81
2023-01-07T16:03:05.903Z,100621.19
2023-01-07T16:05:38.618Z,100616.88
2023-01-07T16:08:07.007Z,100622.69
2023-01-07T16:10:36.659Z,100609.16
2023-01-07T16:13:07.599Z,100611.84
2023-01-07T16:15:38.453Z,100602.59
2023-01-07T16:18:20.002Z,100614.97
2023-01-07T16:20:55.827Z,100609.56
2023-01-07T16:23:26.157Z,100607.22
2023-01-07T16:25:59.590Z,100610.72
2023-01-07T16:28:32.689Z,100599.88
2023-01-07T16:31:02.086Z,100604.50
2023-01-07T16:33:34.014Z,100617.28
2023-01-07T16:36:05.449Z,100605.28
2023-01-07T16:38:36.583Z,100611.84
2023-01-07T16:41:04.996Z,100603.72
2023-01-07T16:43:44.203Z,100611.84
2023-01-07T16:46:26.266Z,100602.53
2023-01-07T16:49:28.464Z,100596.38
2023-01-07T16:52:07.122Z,100602.22
2023-01-07T16:54:40.103Z,100594.09
2023-01-07T16:57:29.771Z,100609.97
2023-01-07T17:00:01.644Z,100601.84
2023-01-07T17:02:33.400Z,100600.72
2023-01-07T17:05:18.760Z,100599.56
2023-01-07T17:07:49.693Z,100593.00
2023-01-07T17:10:26.456Z,100595.34
2023-01-07T17:13:04.969Z,100581.06
2023-01-07T17:15:39.367Z,100594.59
2023-01-07T17:18:29.901Z,100596.13
2023-01-07T17:21:01.605Z,100586.50
2023-01-07T17:23:45.542Z,100584.94
2023-01-07T17:26:22.987Z,100574.50
2023-01-07T17:28:53.993Z,100580.72
2023-01-07T17:31:23.476Z,100566.00
2023-01-07T17:33:53.076Z,100567.59
2023-01-07T17:36:24.897Z,100553.28
2023-01-07T17:38:53.633Z,100566.06
2023-01-07T17:41:41.442Z,100562.22
2023-01-07T17:44:12.985Z,100549.03
2023-01-07T17:46:41.757Z,100549.03
2023-01-07T17:49:11.505Z,100540.91
2023-01-07T17:51:44.818Z,100536.63
2023-01-07T17:54:22.827Z,100540.81
2023-01-07T17:56:52.137Z,100534.56
2023-01-07T17:59:22.565Z,100532.22
2023-01-07T18:01:55.110Z,100529.44
2023-01-07T18:04:23.727Z,100528.31
2023-01-07T18:06:53.292Z,100526.75
2023-01-07T18:09:21.636Z,100534.72
2023-01-07T18:12:07.365Z,100524.56
2023-01-07T18:14:35.562Z,100521.28
2023-01-07T18:17:03.775Z,100515.00
2023-01-07T18:19:32.032Z,100522.63
2023-01-07T18:22:01.607Z,100523.34
2023-01-07T18:24:29.820Z,100518.63
2023-01-07T18:26:58.444Z,100518.25
2023-01-07T18:29:26.704Z,100527.50
2023-01-07T18:31:55.076Z,100531.34
2023-01-07T18:34:23.376Z,100524.81
2023-01-07T18:36:51.675Z,100516.31
2023-01-07T18:39:21.671Z,100515.16
2023-01-07T18:41:50.476Z,100512.44
2023-01-07T18:44:19.275Z,100515.25
2023-01-07T18:46:47.583Z,100514.00
2023-01-07T18:49:16.344Z,100506.66
2023-01-07T18:51:46.705Z,100508.69
2023-01-07T18:54:15.279Z,100514.50
2023-01-07T18:56:46.237Z,100508.72
2023-01-07T18:59:14.914Z,100505.66
2023-01-07T19:01:43.407Z,100504.22
2023-01-07T19:04:11.925Z,100499.22
2023-01-07T19:06:40.218Z,100510.91
2023-01-07T19:09:08.649Z,100514.44
2023-01-07T19:11:38.300Z,100519.56
2023-01-07T19:14:09.559Z,100518.47
2023-01-07T19:16:39.363Z,100517.34
2023-01-07T19:19:07.761Z,100521.69
2023-01-07T19:21:36.493Z,100517.09
2023-01-07T19:24:05.065Z,100503.97
2023-01-07T19:26:35.209Z,100511.75
2023-01-07T19:29:04.303Z,100508.28
2023-01-07T19:31:34.177Z,100497.88
2023-01-07T19:34:03.006Z,100496.72
2023-01-07T19:36:31.900Z,100501.00
2023-01-07T19:39:00.251Z,100508.00
2023-01-07T19:41:28.743Z,100502.19
2023-01-07T19:44:00.625Z,100493.34
2023-01-07T19:46:29.582Z,100504.16
2023-01-07T19:48:59.199Z,100497.63
2023-01-07T19:51:28.263Z,100508.88
2023-01-07T19:53:56.491Z,100503.84
2023-01-07T19:56:24.878Z,100506.97
2023-01-07T19:58:54.616Z,100497.28
2023-01-07T20:01:26.438Z,100498.06
2023-01-07T20:03:55.834Z,100489.78
2023-01-07T20:06:28.087Z,100490.91
2023-01-07T20:08:58.376Z,100489.25
2023-01-07T20:11:27.008Z,100491.41
2023-01-07T20:13:55.280Z,100480.47
2023-01-07T20:16:25.094Z,100497.41
2023-01-07T20:18:55.465Z,100492.66
2023-01-07T20:21:27.177Z,100484.13
2023-01-07T20:23:56.047Z,100491.03
2023-01-07T20:26:26.595Z,100498.75
2023-01-07T20:28:55.281Z,100503.38
2023-01-07T20:31:25.864Z,100486.72
2023-01-07T20:33:55.667Z,100497.13
2023-01-07T20:36:27.569Z,100494.38
2023-01-07T20:38:56.686Z,100500.56
2023-01-07T20:41:27.986Z,100496.28
2023-01-07T20:43:58.340Z,100492.44
2023-01-07T20:46:28.383Z,100491.66
2023-01-07T20:48:57.527Z,100483.19
2023-01-07T20:51:27.449Z,100484.31
2023-01-07T20:53:55.782Z,100487.81
2023-01-07T20:56:26.201Z,100488.59
2023-01-07T20:58:57.299Z,100473.50
2023-01-07T21:01:25.722Z,100482.41
2023-01-07T21:03:54.096Z,100473.84
2023-01-07T21:06:22.985Z,100473.06
2023-01-07T21:08:52.662Z,100472.34
2023-01-07T21:11:23.681Z,100479.72
2023-01-07T21:13:56.252Z,100473.97
2023-01-07T21:16:25.720Z,100478.66
2023-01-07T21:18:54.017Z,100483.34
2023-01-07T21:21:25.415Z,100471.78
2023-01-07T21:23:55.918Z,100475.72
2023-01-07T21:26:25.021Z,100478.81
2023-01-07T21:28:55.875Z,100471.09
2023-01-07T21:31:24.988Z,100471.88
2023-01-07T21:33:56.826Z,100473.81
2023-01-07T21:36:26.545Z,100471.19
2023-01-07T21:38:58.830Z,100465.75
2023-01-07T21:41:28.094Z,100463.84
2023-01-07T21:44:05.515Z,100464.22
2023-01-07T21:46:34.038Z,100463.06
2023-01-07T21:49:03.759Z,100463.06
2023-01-07T21:51:32.177Z,100456.50
2023-01-07T21:54:01.993Z,100454.25
2023-01-07T21:56:32.930Z,100451.97
2023-01-07T21:59:01.591Z,100453.50
2023-01-07T22:01:30.416Z,100445.81
2023-01-07T22:03:59.868Z,100442.31
2023-01-07T22:06:30.886Z,100448.16
2023-01-07T22:09:02.315Z,100445.06
2023-01-07T22:11:31.165Z,100441.22
2023-01-07T22:14:01.425Z,100449.75
2023-01-07T22:16:31.739Z,100448.63
2023-01-07T22:19:01.182Z,100454.38
2023-01-07T22:21:29.579Z,100450.53
2023-01-07T22:23:58.191Z,100445.13
2023-01-07T22:26:27.849Z,100448.50
2023-01-07T22:29:01.833Z,100471.28
2023-01-07T22:31:33.722Z,100450.31
2023-01-07T22:34:01.806Z,100446.72
2023-01-07T22:36:37.857Z,100452.13
2023-01-07T22:39:12.505Z,100453.63
2023-01-07T22:41:42.314Z,100460.91
2023-01-07T22:44:15.060Z,100446.94
2023-01-07T22:46:46.570Z,100437.63
2023-01-07T22:49:15.431Z,100446.13
2023-01-07T22:51:47.637Z,100446.84
2023-01-07T22:54:17.547Z,100450.69
2023-01-07T22:56:47.926Z,100429.81
2023-01-07T22:59:16.294Z,100432.16
2023-01-07T23:01:44.599Z,100422.47
2023-01-07T23:04:13.185Z,100417.84
2023-01-07T23:06:41.562Z,100432.16
2023-01-07T23:09:09.790Z,100424.03
2023-01-07T23:11:50.821Z,100418.25
2023-01-07T23:14:22.140Z,100413.28
2023-01-07T23:16:51.513Z,100431.50
2023-01-07T23:19:21.631Z,100421.44
2023-01-07T23:21:52.971Z,100424.56
2023-01-07T23:24:21.901Z,100432.69
2023-01-07T23:26:52.623Z,100419.56
2023-01-07T23:29:22.489Z,100417.63
2023-01-07T23:31:51.232Z,100416.94
2023-01-07T23:34:19.653Z,100419.25
2023-01-07T23:36:47.871Z,100414.25
2023-01-07T23:39:16.414Z,100413.88
2023-01-07T23:41:45.683Z,100407.34
2023-01-07T23:44:14.039Z,100396.16
2023-01-07T23:46:43.591Z,100395.75
2023-01-07T23:49:11.810Z,100402.72
2023-01-07T23:51:41.693Z,100395.03
2023-01-07T23:54:10.009Z,100402.34
2023-01-07T23:56:38.283Z,100397.38
2023-01-07T23:59:06.603Z,100393.53
